HKMO/MBA METAR and TAF weather

Enter ICAO airport designator
Station Type Date Time Source
HKMO METAR 2019/02/23 13:00 UTC NOAA

HKMO 231300Z 09009KT 9999 FEW026CB SCT027 31/24 Q1008 TEMPO -TS FEW026CB SCT027


Station Type Date Time Source
HKMO Decoded METAR 2019/02/23 13:00 UTC NOAA

Mombasa, Kenya (HKMO) 04-02S 039-37E 55M
Feb 23, 2019 - 08:00 AM EST / 2019.02.23 1300 UTC
Wind: from the E (090 degrees) at 10 MPH (9 KT):0
Visibility: greater than 7 mile(s):0
Sky conditions: partly cloudy
Weather: Cumulonimbus clouds observed
Temperature: 87 F (31 C)
Heat index: 95.7 F (35.4 C):1
Dew Point: 75 F (24 C)
Relative Humidity: 66%
Pressure (altimeter): 29.77 in. Hg (1008 hPa)
ob: HKMO 231300Z 09009KT 9999 FEW026CB SCT027 31/24 Q1008 TEMPO -TS FEW026CB SCT027
cycle: 13

Station Type Date Time Source
HKMO TAF 2019/02/23 12:56 UTC NOAA

TAF HKMO 231100Z 2312/2418 06010KT 9999 FEW026CB SCT080
BECMG 2318/2321 09005KT FEW023
BECMG 2400/2406 00000KT SCT022
BECMG 2409/2412 09010KT FEW024CB SCT025


Example: see airport list